createdAt,value
2019-01-21T13:00:04.431Z,42.80
2019-01-21T13:03:00.785Z,43.10
2019-01-21T13:06:07.908Z,45.30
2019-01-21T13:09:11.476Z,44.60
2019-01-21T13:12:21.837Z,44.70
2019-01-21T13:15:26.311Z,42.80
2019-01-21T13:18:25.354Z,43.10
2019-01-21T13:21:34.792Z,43.00
2019-01-21T13:24:39.880Z,42.50
2019-01-21T13:27:46.076Z,42.00
2019-01-21T13:31:14.929Z,41.40
2019-01-21T13:34:17.174Z,41.50
2019-01-21T13:37:07.811Z,42.30
2019-01-21T13:40:36.445Z,41.80
2019-01-21T13:43:56.046Z,42.00
2019-01-21T13:46:58.509Z,41.80
2019-01-21T13:49:48.760Z,61.50
2019-01-21T13:52:56.459Z,68.40
2019-01-21T13:55:43.906Z,50.90
2019-01-21T13:59:05.825Z,37.00
2019-01-21T14:01:54.191Z,33.40
2019-01-21T14:04:41.129Z,32.80
2019-01-21T14:07:43.093Z,32.50
2019-01-21T14:10:56.399Z,33.70
2019-01-21T14:13:54.359Z,33.80
2019-01-21T14:17:17.348Z,35.80
2019-01-21T14:20:18.214Z,35.80
2019-01-21T14:22:58.799Z,37.30
2019-01-21T14:26:03.984Z,38.00
2019-01-21T14:29:13.232Z,37.70
2019-01-21T14:32:25.168Z,38.40
2019-01-21T14:35:12.853Z,37.60
2019-01-21T14:38:06.008Z,37.10
2019-01-21T14:41:04.005Z,37.00
2019-01-21T14:44:13.243Z,36.40
2019-01-21T14:47:15.304Z,38.10
2019-01-21T14:50:25.333Z,39.50
2019-01-21T14:53:23.662Z,40.40
2019-01-21T14:56:46.261Z,40.70
2019-01-21T14:59:49.947Z,40.70
2019-01-21T15:02:31.543Z,41.10
2019-01-21T15:05:31.195Z,41.30
2019-01-21T15:08:12.586Z,40.80
2019-01-21T15:11:21.925Z,40.90
2019-01-21T15:14:10.500Z,41.00
2019-01-21T15:17:11.711Z,41.20
2019-01-21T15:19:49.641Z,40.70
2019-01-21T15:23:15.328Z,40.00
2019-01-21T15:26:21.575Z,40.10
2019-01-21T15:29:31.978Z,40.60
2019-01-21T15:32:22.866Z,43.10
2019-01-21T15:35:31.322Z,44.50
2019-01-21T15:38:43.508Z,44.80
2019-01-21T15:41:41.147Z,45.30
2019-01-21T15:44:28.862Z,47.30
2019-01-21T15:48:00.481Z,48.00
2019-01-21T15:50:44.480Z,48.60
2019-01-21T15:53:32.489Z,48.90
2019-01-21T15:56:50.788Z,50.80
2019-01-21T15:59:58.408Z,53.10
2019-01-21T16:02:44.528Z,55.40
2019-01-21T16:05:48.178Z,57.30
2019-01-21T16:09:03.017Z,58.90
2019-01-21T16:12:16.439Z,61.60
2019-01-21T16:15:15.093Z,62.30
2019-01-21T16:18:10.768Z,64.80
2019-01-21T16:21:12.781Z,64.80
2019-01-21T16:24:36.734Z,65.80
2019-01-21T16:27:15.065Z,66.00
2019-01-21T16:29:57.299Z,67.90
2019-01-21T16:32:50.484Z,67.50
2019-01-21T16:35:54.659Z,67.80
2019-01-21T16:38:54.869Z,68.00
2019-01-21T16:42:12.941Z,68.70
2019-01-21T16:44:42.869Z,69.30
2019-01-21T16:47:12.055Z,69.70
2019-01-21T16:49:41.249Z,72.20
2019-01-21T16:52:10.511Z,71.50
2019-01-21T16:54:39.738Z,99.90
2019-01-21T16:57:09.121Z,84.00
2019-01-21T16:59:38.681Z,81.50
2019-01-21T17:02:08.070Z,76.30
2019-01-21T17:04:37.376Z,77.80
2019-01-21T17:07:06.709Z,75.50
2019-01-21T17:09:35.915Z,76.50
2019-01-21T17:12:05.182Z,75.50
2019-01-21T17:14:34.523Z,76.30
2019-01-21T17:17:03.792Z,75.50
2019-01-21T17:19:33.055Z,76.00
2019-01-21T17:22:02.317Z,75.80
2019-01-21T17:24:31.720Z,75.00
2019-01-21T17:27:01.055Z,74.10
2019-01-21T17:29:30.345Z,98.80
2019-01-21T17:32:00.319Z,99.90
2019-01-21T17:34:29.662Z,99.90
2019-01-21T17:36:58.971Z,81.30
2019-01-21T17:39:28.169Z,79.60
2019-01-21T17:41:57.439Z,79.80
2019-01-21T17:44:26.636Z,80.10
2019-01-21T17:46:56.017Z,75.00
2019-01-21T17:49:25.362Z,78.10
2019-01-21T17:51:54.723Z,77.40
2019-01-21T17:54:23.968Z,79.30
2019-01-21T17:56:53.323Z,80.20
2019-01-21T17:59:22.588Z,80.30
2019-01-21T18:01:51.880Z,80.10
2019-01-21T18:04:21.309Z,80.00
2019-01-21T18:06:50.786Z,80.30
2019-01-21T18:09:20.248Z,80.30
2019-01-21T18:11:49.598Z,80.30
2019-01-21T18:14:18.823Z,80.70
2019-01-21T18:16:48.100Z,81.00
2019-01-21T18:19:17.352Z,81.10
2019-01-21T18:21:46.659Z,97.00
2019-01-21T18:24:15.923Z,99.90
2019-01-21T18:26:45.213Z,94.20
2019-01-21T18:29:14.459Z,91.70
2019-01-21T18:31:43.806Z,90.30
2019-01-21T18:34:13.073Z,86.60
2019-01-21T18:36:42.372Z,85.60
2019-01-21T18:39:19.166Z,83.80
2019-01-21T18:41:48.513Z,84.20
2019-01-21T18:44:17.785Z,83.60
2019-01-21T18:46:47.010Z,83.80
2019-01-21T18:49:22.798Z,85.10
2019-01-21T18:51:48.501Z,93.50
2019-01-21T18:54:17.841Z,95.40
2019-01-21T18:56:47.221Z,94.50
2019-01-21T18:59:16.493Z,91.20
2019-01-21T19:01:45.715Z,91.10
2019-01-21T19:04:15.091Z,90.10
2019-01-21T19:06:44.438Z,87.30
2019-01-21T19:09:13.744Z,87.90
2019-01-21T19:11:43.323Z,90.40
2019-01-21T19:14:12.608Z,89.60
2019-01-21T19:16:42.000Z,88.70
2019-01-21T19:19:11.401Z,88.60
2019-01-21T19:21:40.793Z,88.00
2019-01-21T19:24:10.399Z,88.20
2019-01-21T19:26:39.744Z,90.30
2019-01-21T19:29:09.123Z,90.60
2019-01-21T19:31:38.450Z,90.80
2019-01-21T19:34:08.247Z,91.30
2019-01-21T19:36:37.555Z,91.40
2019-01-21T19:39:08.914Z,91.40
2019-01-21T19:41:38.204Z,92.10
2019-01-21T19:44:07.563Z,92.00
2019-01-21T19:46:37.135Z,92.00
2019-01-21T19:49:06.504Z,91.60
2019-01-21T19:51:35.748Z,91.80
2019-01-21T19:54:05.432Z,92.60
2019-01-21T19:56:34.656Z,93.30
2019-01-21T19:59:04.155Z,92.40
2019-01-21T20:01:33.510Z,91.90
2019-01-21T20:04:02.801Z,92.00
2019-01-21T20:06:32.073Z,90.60
2019-01-21T20:09:01.410Z,91.00
2019-01-21T20:11:34.795Z,91.60
2019-01-21T20:14:01.820Z,91.70
2019-01-21T20:16:31.086Z,91.70
2019-01-21T20:19:00.591Z,94.30
2019-01-21T20:21:29.935Z,92.90
2019-01-21T20:23:59.524Z,99.90
2019-01-21T20:26:28.842Z,99.90
2019-01-21T20:28:58.335Z,99.90
2019-01-21T20:31:27.589Z,99.90
2019-01-21T20:33:56.908Z,96.90
2019-01-21T20:36:26.511Z,88.10
2019-01-21T20:38:55.894Z,86.30
2019-01-21T20:41:25.436Z,82.40
2019-01-21T20:43:54.779Z,76.90
2019-01-21T20:46:24.078Z,73.40
2019-01-21T20:48:53.370Z,64.20
2019-01-21T20:51:22.780Z,61.10
2019-01-21T20:53:52.106Z,59.10
2019-01-21T20:56:21.413Z,60.70
2019-01-21T20:58:50.889Z,58.10
2019-01-21T21:01:20.494Z,56.30
2019-01-21T21:03:49.881Z,55.50
2019-01-21T21:06:19.546Z,59.50
2019-01-21T21:08:48.882Z,60.50
2019-01-21T21:11:18.314Z,64.20
2019-01-21T21:13:47.594Z,68.50
2019-01-21T21:16:16.922Z,71.40
2019-01-21T21:18:46.264Z,73.10
2019-01-21T21:21:15.603Z,74.70
2019-01-21T21:23:44.851Z,98.50
2019-01-21T21:26:14.204Z,82.80
2019-01-21T21:28:43.612Z,82.20
2019-01-21T21:31:13.012Z,79.00
2019-01-21T21:33:43.147Z,83.30
2019-01-21T21:36:12.652Z,83.40
2019-01-21T21:38:42.000Z,83.80
2019-01-21T21:41:11.373Z,88.00
2019-01-21T21:43:40.877Z,84.40
2019-01-21T21:46:10.233Z,85.90
2019-01-21T21:48:39.707Z,85.30
2019-01-21T21:51:09.084Z,87.30
2019-01-21T21:53:38.476Z,85.90
2019-01-21T21:56:07.747Z,85.40
2019-01-21T21:58:37.136Z,86.30
2019-01-21T22:01:06.448Z,87.10
2019-01-21T22:03:35.783Z,87.40
2019-01-21T22:06:05.190Z,87.80
2019-01-21T22:08:34.519Z,88.90
2019-01-21T22:11:03.876Z,89.80
2019-01-21T22:13:33.222Z,89.20
2019-01-21T22:16:02.587Z,90.80
2019-01-21T22:18:32.144Z,91.20
2019-01-21T22:21:01.547Z,92.30
2019-01-21T22:23:31.077Z,90.30
2019-01-21T22:26:00.371Z,90.20
2019-01-21T22:28:29.677Z,90.40
2019-01-21T22:31:00.199Z,90.20
2019-01-21T22:33:29.703Z,90.90
2019-01-21T22:35:59.032Z,90.20
2019-01-21T22:38:28.439Z,90.80
2019-01-21T22:40:57.777Z,91.40
2019-01-21T22:43:27.367Z,90.20
2019-01-21T22:45:56.737Z,90.30
2019-01-21T22:48:26.091Z,90.40
2019-01-21T22:50:55.475Z,92.20
2019-01-21T22:53:24.811Z,91.40
2019-01-21T22:55:54.363Z,92.70
2019-01-21T22:58:23.736Z,92.80
2019-01-21T23:00:57.830Z,92.50
2019-01-21T23:03:28.176Z,91.70
2019-01-21T23:05:57.516Z,90.90
2019-01-21T23:08:26.880Z,92.20
2019-01-21T23:10:56.174Z,91.40
2019-01-21T23:13:25.558Z,91.60
2019-01-21T23:15:54.899Z,94.70
2019-01-21T23:18:24.258Z,92.80
2019-01-21T23:20:53.811Z,91.50
2019-01-21T23:23:23.181Z,91.40
2019-01-21T23:25:52.442Z,91.30
2019-01-21T23:28:21.736Z,91.40
2019-01-21T23:30:51.093Z,91.10
2019-01-21T23:33:20.867Z,91.50
2019-01-21T23:35:50.302Z,91.00
2019-01-21T23:38:19.697Z,90.80
2019-01-21T23:40:48.978Z,91.10
2019-01-21T23:43:18.411Z,91.10
2019-01-21T23:45:47.747Z,91.20
2019-01-21T23:48:17.108Z,91.60
2019-01-21T23:50:46.383Z,91.30
2019-01-21T23:53:15.758Z,91.50
2019-01-21T23:55:45.105Z,91.50
2019-01-21T23:58:14.460Z,91.70
